sensor_id;sensor_type;location;lat;lon;timestamp;P1;durP1;ratioP1;P2;durP2;ratioP2
80625;SDS011;69982;51.758;5.784;2024-01-16T00:01:18;4.60;;;2.00;;
80625;SDS011;69982;51.758;5.784;2024-01-16T00:03:54;6.00;;;2.10;;
80625;SDS011;69982;51.758;5.784;2024-01-16T00:06:26;4.40;;;2.10;;
80625;SDS011;69982;51.758;5.784;2024-01-16T00:08:53;9.10;;;2.60;;
80625;SDS011;69982;51.758;5.784;2024-01-16T00:11:19;5.50;;;1.90;;
80625;SDS011;69982;51.758;5.784;2024-01-16T00:13:52;6.40;;;2.40;;
80625;SDS011;69982;51.758;5.784;2024-01-16T00:23:47;7.70;;;3.00;;
80625;SDS011;69982;51.758;5.784;2024-01-16T00:26:38;6.40;;;2.20;;
80625;SDS011;69982;51.758;5.784;2024-01-16T00:29:05;9.50;;;3.00;;
80625;SDS011;69982;51.758;5.784;2024-01-16T00:31:32;7.30;;;2.20;;
80625;SDS011;69982;51.758;5.784;2024-01-16T00:33:58;5.00;;;2.00;;
80625;SDS011;69982;51.758;5.784;2024-01-16T00:36:34;5.80;;;2.10;;
80625;SDS011;69982;51.758;5.784;2024-01-16T00:39:01;8.30;;;2.10;;
80625;SDS011;69982;51.758;5.784;2024-01-16T00:41:29;8.40;;;2.30;;
80625;SDS011;69982;51.758;5.784;2024-01-16T00:43:58;9.70;;;2.80;;
80625;SDS011;69982;51.758;5.784;2024-01-16T00:46:29;9.50;;;2.60;;
80625;SDS011;69982;51.758;5.784;2024-01-16T00:48:56;9.80;;;2.70;;
80625;SDS011;69982;51.758;5.784;2024-01-16T00:51:23;9.70;;;3.60;;
80625;SDS011;69982;51.758;5.784;2024-01-16T00:53:50;11.30;;;2.90;;
80625;SDS011;69982;51.758;5.784;2024-01-16T00:58:47;5.50;;;2.40;;
80625;SDS011;69982;51.758;5.784;2024-01-16T01:01:13;7.80;;;2.70;;
80625;SDS011;69982;51.758;5.784;2024-01-16T01:03:40;6.00;;;2.20;;
80625;SDS011;69982;51.758;5.784;2024-01-16T01:06:06;6.40;;;2.10;;
80625;SDS011;69982;51.758;5.784;2024-01-16T01:08:33;5.30;;;2.40;;
80625;SDS011;69982;51.758;5.784;2024-01-16T01:10:59;9.80;;;2.80;;
80625;SDS011;69982;51.758;5.784;2024-01-16T01:13:29;6.40;;;2.30;;
80625;SDS011;69982;51.758;5.784;2024-01-16T01:15:56;6.90;;;2.60;;
80625;SDS011;69982;51.758;5.784;2024-01-16T01:18:22;5.80;;;2.70;;
80625;SDS011;69982;51.758;5.784;2024-01-16T01:20:49;6.70;;;3.20;;
80625;SDS011;69982;51.758;5.784;2024-01-16T01:23:16;6.10;;;2.60;;
80625;SDS011;69982;51.758;5.784;2024-01-16T01:25:43;7.50;;;2.30;;
80625;SDS011;69982;51.758;5.784;2024-01-16T01:28:13;6.40;;;3.40;;
80625;SDS011;69982;51.758;5.784;2024-01-16T01:30:40;8.10;;;3.40;;
80625;SDS011;69982;51.758;5.784;2024-01-16T01:33:10;3.60;;;1.40;;
80625;SDS011;69982;51.758;5.784;2024-01-16T01:35:43;5.80;;;3.00;;
80625;SDS011;69982;51.758;5.784;2024-01-16T01:38:13;6.90;;;3.00;;
80625;SDS011;69982;51.758;5.784;2024-01-16T01:40:39;6.90;;;3.00;;
80625;SDS011;69982;51.758;5.784;2024-01-16T01:43:22;7.40;;;4.00;;
80625;SDS011;69982;51.758;5.784;2024-01-16T01:46:07;10.70;;;4.10;;
80625;SDS011;69982;51.758;5.784;2024-01-16T01:48:40;8.90;;;4.00;;
80625;SDS011;69982;51.758;5.784;2024-01-16T01:51:08;7.90;;;3.40;;
80625;SDS011;69982;51.758;5.784;2024-01-16T01:53:39;10.60;;;3.70;;
80625;SDS011;69982;51.758;5.784;2024-01-16T01:56:14;6.70;;;3.10;;
80625;SDS011;69982;51.758;5.784;2024-01-16T01:58:49;5.80;;;2.60;;
80625;SDS011;69982;51.758;5.784;2024-01-16T02:01:21;6.50;;;3.20;;
80625;SDS011;69982;51.758;5.784;2024-01-16T02:03:51;8.10;;;3.50;;
80625;SDS011;69982;51.758;5.784;2024-01-16T02:06:24;5.60;;;2.60;;
80625;SDS011;69982;51.758;5.784;2024-01-16T02:08:53;6.60;;;3.00;;
80625;SDS011;69982;51.758;5.784;2024-01-16T02:11:19;8.80;;;3.40;;
80625;SDS011;69982;51.758;5.784;2024-01-16T02:13:46;6.80;;;3.10;;
80625;SDS011;69982;51.758;5.784;2024-01-16T02:16:21;7.90;;;2.50;;
80625;SDS011;69982;51.758;5.784;2024-01-16T02:21:21;5.00;;;1.90;;
80625;SDS011;69982;51.758;5.784;2024-01-16T02:23:48;8.10;;;3.20;;
80625;SDS011;69982;51.758;5.784;2024-01-16T02:26:15;8.20;;;2.60;;
80625;SDS011;69982;51.758;5.784;2024-01-16T02:28:45;5.10;;;2.40;;
80625;SDS011;69982;51.758;5.784;2024-01-16T02:31:18;6.40;;;2.70;;
80625;SDS011;69982;51.758;5.784;2024-01-16T02:33:47;6.70;;;2.30;;
80625;SDS011;69982;51.758;5.784;2024-01-16T02:36:13;9.20;;;2.50;;
80625;SDS011;69982;51.758;5.784;2024-01-16T02:38:40;6.50;;;2.80;;
80625;SDS011;69982;51.758;5.784;2024-01-16T02:41:10;11.40;;;2.50;;
80625;SDS011;69982;51.758;5.784;2024-01-16T02:43:46;8.50;;;2.50;;
80625;SDS011;69982;51.758;5.784;2024-01-16T02:46:16;6.60;;;2.30;;
80625;SDS011;69982;51.758;5.784;2024-01-16T02:48:42;8.70;;;2.60;;
80625;SDS011;69982;51.758;5.784;2024-01-16T02:51:09;7.70;;;2.80;;
80625;SDS011;69982;51.758;5.784;2024-01-16T02:53:41;7.20;;;2.70;;
80625;SDS011;69982;51.758;5.784;2024-01-16T02:56:14;7.80;;;2.50;;
80625;SDS011;69982;51.758;5.784;2024-01-16T02:58:41;5.60;;;2.40;;
80625;SDS011;69982;51.758;5.784;2024-01-16T03:01:07;7.50;;;2.20;;
80625;SDS011;69982;51.758;5.784;2024-01-16T03:03:35;7.30;;;2.60;;
80625;SDS011;69982;51.758;5.784;2024-01-16T03:06:02;6.00;;;2.30;;
80625;SDS011;69982;51.758;5.784;2024-01-16T03:08:31;8.10;;;3.10;;
80625;SDS011;69982;51.758;5.784;2024-01-16T03:10:57;8.40;;;2.80;;
80625;SDS011;69982;51.758;5.784;2024-01-16T03:13:24;9.10;;;2.80;;
80625;SDS011;69982;51.758;5.784;2024-01-16T03:15:57;8.30;;;2.80;;
80625;SDS011;69982;51.758;5.784;2024-01-16T03:18:23;8.30;;;1.70;;
80625;SDS011;69982;51.758;5.784;2024-01-16T03:20:58;11.20;;;2.70;;
80625;SDS011;69982;51.758;5.784;2024-01-16T03:23:26;11.50;;;2.60;;
80625;SDS011;69982;51.758;5.784;2024-01-16T03:25:55;7.40;;;2.60;;
80625;SDS011;69982;51.758;5.784;2024-01-16T03:28:21;8.50;;;2.80;;
80625;SDS011;69982;51.758;5.784;2024-01-16T03:30:48;7.60;;;2.70;;
80625;SDS011;69982;51.758;5.784;2024-01-16T03:33:17;8.40;;;2.80;;
80625;SDS011;69982;51.758;5.784;2024-01-16T03:38:18;6.30;;;2.40;;
80625;SDS011;69982;51.758;5.784;2024-01-16T03:40:45;7.20;;;2.50;;
80625;SDS011;69982;51.758;5.784;2024-01-16T03:43:14;8.40;;;2.60;;
80625;SDS011;69982;51.758;5.784;2024-01-16T03:45:41;5.10;;;2.00;;
80625;SDS011;69982;51.758;5.784;2024-01-16T03:48:07;7.00;;;2.30;;
80625;SDS011;69982;51.758;5.784;2024-01-16T03:50:34;6.30;;;1.90;;
80625;SDS011;69982;51.758;5.784;2024-01-16T03:53:02;6.50;;;2.40;;
80625;SDS011;69982;51.758;5.784;2024-01-16T03:55:35;5.80;;;2.10;;
80625;SDS011;69982;51.758;5.784;2024-01-16T03:58:07;6.00;;;1.60;;
80625;SDS011;69982;51.758;5.784;2024-01-16T04:00:40;3.70;;;1.90;;
80625;SDS011;69982;51.758;5.784;2024-01-16T04:03:07;6.50;;;2.30;;
80625;SDS011;69982;51.758;5.784;2024-01-16T04:05:44;7.60;;;1.60;;
80625;SDS011;69982;51.758;5.784;2024-01-16T04:08:11;3.90;;;1.30;;
80625;SDS011;69982;51.758;5.784;2024-01-16T04:10:40;4.00;;;1.10;;
80625;SDS011;69982;51.758;5.784;2024-01-16T04:13:11;3.50;;;0.80;;
80625;SDS011;69982;51.758;5.784;2024-01-16T04:15:42;4.20;;;1.10;;
80625;SDS011;69982;51.758;5.784;2024-01-16T04:18:09;4.50;;;1.30;;
80625;SDS011;69982;51.758;5.784;2024-01-16T04:20:36;10.10;;;1.30;;
80625;SDS011;69982;51.758;5.784;2024-01-16T04:25:46;3.90;;;1.00;;
80625;SDS011;69982;51.758;5.784;2024-01-16T04:28:15;4.20;;;0.90;;
80625;SDS011;69982;51.758;5.784;2024-01-16T04:30:44;3.40;;;1.40;;
80625;SDS011;69982;51.758;5.784;2024-01-16T04:33:11;4.40;;;1.30;;
80625;SDS011;69982;51.758;5.784;2024-01-16T04:35:40;4.30;;;1.30;;
80625;SDS011;69982;51.758;5.784;2024-01-16T04:38:08;3.90;;;1.20;;
80625;SDS011;69982;51.758;5.784;2024-01-16T04:40:34;6.30;;;1.00;;
80625;SDS011;69982;51.758;5.784;2024-01-16T04:43:01;3.70;;;1.00;;
80625;SDS011;69982;51.758;5.784;2024-01-16T04:45:31;4.70;;;1.00;;
80625;SDS011;69982;51.758;5.784;2024-01-16T04:47:57;4.30;;;1.20;;
80625;SDS011;69982;51.758;5.784;2024-01-16T04:50:24;5.20;;;1.00;;
80625;SDS011;69982;51.758;5.784;2024-01-16T04:53:00;5.60;;;1.30;;
80625;SDS011;69982;51.758;5.784;2024-01-16T04:55:28;5.60;;;1.60;;
80625;SDS011;69982;51.758;5.784;2024-01-16T04:57:57;6.70;;;1.60;;
80625;SDS011;69982;51.758;5.784;2024-01-16T05:00:25;5.40;;;1.70;;
80625;SDS011;69982;51.758;5.784;2024-01-16T05:02:52;7.80;;;1.60;;
80625;SDS011;69982;51.758;5.784;2024-01-16T05:05:19;6.90;;;1.30;;
80625;SDS011;69982;51.758;5.784;2024-01-16T05:07:46;7.10;;;1.60;;
80625;SDS011;69982;51.758;5.784;2024-01-16T05:10:16;4.80;;;2.10;;
80625;SDS011;69982;51.758;5.784;2024-01-16T05:12:42;5.90;;;2.00;;
80625;SDS011;69982;51.758;5.784;2024-01-16T05:15:09;7.70;;;1.80;;
80625;SDS011;69982;51.758;5.784;2024-01-16T05:17:43;7.50;;;1.50;;
80625;SDS011;69982;51.758;5.784;2024-01-16T05:20:11;5.80;;;1.60;;
80625;SDS011;69982;51.758;5.784;2024-01-16T05:22:40;7.70;;;1.50;;
80625;SDS011;69982;51.758;5.784;2024-01-16T05:25:10;3.90;;;1.80;;
80625;SDS011;69982;51.758;5.784;2024-01-16T05:27:36;5.30;;;2.00;;
80625;SDS011;69982;51.758;5.784;2024-01-16T05:30:03;7.80;;;2.30;;
80625;SDS011;69982;51.758;5.784;2024-01-16T05:32:40;4.60;;;1.90;;
80625;SDS011;69982;51.758;5.784;2024-01-16T05:35:07;5.60;;;1.80;;
80625;SDS011;69982;51.758;5.784;2024-01-16T05:37:35;5.90;;;2.00;;
80625;SDS011;69982;51.758;5.784;2024-01-16T05:40:04;7.30;;;1.90;;
80625;SDS011;69982;51.758;5.784;2024-01-16T05:42:34;7.60;;;2.50;;
80625;SDS011;69982;51.758;5.784;2024-01-16T05:45:02;9.60;;;2.60;;
80625;SDS011;69982;51.758;5.784;2024-01-16T05:47:29;8.30;;;2.80;;
80625;SDS011;69982;51.758;5.784;2024-01-16T05:49:56;6.30;;;2.30;;
80625;SDS011;69982;51.758;5.784;2024-01-16T05:52:26;7.50;;;3.00;;
80625;SDS011;69982;51.758;5.784;2024-01-16T05:54:53;9.30;;;3.50;;
80625;SDS011;69982;51.758;5.784;2024-01-16T05:57:31;11.40;;;3.90;;
80625;SDS011;69982;51.758;5.784;2024-01-16T05:59:59;9.80;;;3.30;;
80625;SDS011;69982;51.758;5.784;2024-01-16T06:02:33;8.60;;;3.10;;
80625;SDS011;69982;51.758;5.784;2024-01-16T06:05:00;9.90;;;4.40;;
80625;SDS011;69982;51.758;5.784;2024-01-16T06:07:28;9.40;;;3.40;;
80625;SDS011;69982;51.758;5.784;2024-01-16T06:09:55;15.50;;;9.40;;
80625;SDS011;69982;51.758;5.784;2024-01-16T06:12:25;8.10;;;5.00;;
80625;SDS011;69982;51.758;5.784;2024-01-16T07:15:27;14.70;;;4.70;;
80625;SDS011;69982;51.758;5.784;2024-01-16T07:17:55;9.70;;;4.30;;
80625;SDS011;69982;51.758;5.784;2024-01-16T07:20:22;6.80;;;2.40;;
80625;SDS011;69982;51.758;5.784;2024-01-16T07:22:49;9.60;;;3.70;;
80625;SDS011;69982;51.758;5.784;2024-01-16T07:25:32;11.20;;;4.30;;
80625;SDS011;69982;51.758;5.784;2024-01-16T07:27:59;12.80;;;3.90;;
80625;SDS011;69982;51.758;5.784;2024-01-16T07:30:26;13.30;;;4.00;;
80625;SDS011;69982;51.758;5.784;2024-01-16T07:32:53;10.70;;;3.50;;
80625;SDS011;69982;51.758;5.784;2024-01-16T07:35:21;10.10;;;3.10;;
80625;SDS011;69982;51.758;5.784;2024-01-16T07:37:50;11.10;;;3.50;;
80625;SDS011;69982;51.758;5.784;2024-01-16T07:40:19;15.60;;;3.90;;
80625;SDS011;69982;51.758;5.784;2024-01-16T07:42:52;8.80;;;3.20;;
80625;SDS011;69982;51.758;5.784;2024-01-16T07:45:20;10.90;;;3.70;;
80625;SDS011;69982;51.758;5.784;2024-01-16T07:47:51;11.00;;;3.50;;
80625;SDS011;69982;51.758;5.784;2024-01-16T07:50:21;9.30;;;3.30;;
80625;SDS011;69982;51.758;5.784;2024-01-16T07:52:52;9.80;;;3.30;;
80625;SDS011;69982;51.758;5.784;2024-01-16T07:55:20;10.10;;;3.00;;
80625;SDS011;69982;51.758;5.784;2024-01-16T07:57:49;14.60;;;3.70;;
80625;SDS011;69982;51.758;5.784;2024-01-16T08:00:16;8.20;;;3.30;;
80625;SDS011;69982;51.758;5.784;2024-01-16T08:02:45;10.40;;;4.00;;
80625;SDS011;69982;51.758;5.784;2024-01-16T08:05:20;10.10;;;3.90;;
80625;SDS011;69982;51.758;5.784;2024-01-16T08:07:51;11.70;;;4.20;;
80625;SDS011;69982;51.758;5.784;2024-01-16T08:10:21;11.50;;;3.80;;
80625;SDS011;69982;51.758;5.784;2024-01-16T08:12:50;11.50;;;4.20;;
80625;SDS011;69982;51.758;5.784;2024-01-16T08:15:20;10.40;;;4.10;;
80625;SDS011;69982;51.758;5.784;2024-01-16T08:17:50;9.90;;;3.90;;
80625;SDS011;69982;51.758;5.784;2024-01-16T08:20:27;11.20;;;3.00;;
80625;SDS011;69982;51.758;5.784;2024-01-16T08:22:57;9.00;;;3.30;;
80625;SDS011;69982;51.758;5.784;2024-01-16T08:25:24;9.40;;;2.50;;
80625;SDS011;69982;51.758;5.784;2024-01-16T08:27:55;10.00;;;3.00;;
80625;SDS011;69982;51.758;5.784;2024-01-16T08:30:23;7.80;;;2.90;;
80625;SDS011;69982;51.758;5.784;2024-01-16T08:32:58;9.40;;;4.10;;
80625;SDS011;69982;51.758;5.784;2024-01-16T08:35:24;8.40;;;3.20;;
80625;SDS011;69982;51.758;5.784;2024-01-16T08:40:20;7.70;;;2.30;;
80625;SDS011;69982;51.758;5.784;2024-01-16T08:42:46;10.90;;;3.00;;
80625;SDS011;69982;51.758;5.784;2024-01-16T08:45:18;11.60;;;3.10;;
80625;SDS011;69982;51.758;5.784;2024-01-16T08:47:47;9.60;;;3.00;;
80625;SDS011;69982;51.758;5.784;2024-01-16T08:50:14;9.20;;;3.00;;
80625;SDS011;69982;51.758;5.784;2024-01-16T08:52:41;4.80;;;2.30;;
80625;SDS011;69982;51.758;5.784;2024-01-16T08:55:08;6.50;;;2.00;;
80625;SDS011;69982;51.758;5.784;2024-01-16T08:57:40;11.90;;;3.00;;
80625;SDS011;69982;51.758;5.784;2024-01-16T09:00:06;12.50;;;2.80;;
80625;SDS011;69982;51.758;5.784;2024-01-16T09:02:35;6.20;;;2.10;;
80625;SDS011;69982;51.758;5.784;2024-01-16T09:05:04;5.60;;;2.90;;
80625;SDS011;69982;51.758;5.784;2024-01-16T09:07:31;8.20;;;2.60;;
80625;SDS011;69982;51.758;5.784;2024-01-16T09:09:57;6.00;;;2.60;;
80625;SDS011;69982;51.758;5.784;2024-01-16T09:12:27;10.20;;;2.50;;
80625;SDS011;69982;51.758;5.784;2024-01-16T09:14:56;10.70;;;3.20;;
80625;SDS011;69982;51.758;5.784;2024-01-16T09:17:28;10.00;;;3.00;;
80625;SDS011;69982;51.758;5.784;2024-01-16T09:19:56;6.60;;;2.60;;
80625;SDS011;69982;51.758;5.784;2024-01-16T09:22:22;7.70;;;2.70;;
80625;SDS011;69982;51.758;5.784;2024-01-16T09:24:49;8.90;;;2.70;;
80625;SDS011;69982;51.758;5.784;2024-01-16T09:27:17;8.00;;;2.60;;
80625;SDS011;69982;51.758;5.784;2024-01-16T09:29:43;7.60;;;2.90;;
80625;SDS011;69982;51.758;5.784;2024-01-16T09:32:10;7.00;;;3.00;;
80625;SDS011;69982;51.758;5.784;2024-01-16T09:34:41;10.40;;;3.10;;
80625;SDS011;69982;51.758;5.784;2024-01-16T09:37:10;7.60;;;3.30;;
80625;SDS011;69982;51.758;5.784;2024-01-16T09:39:47;9.00;;;2.80;;
80625;SDS011;69982;51.758;5.784;2024-01-16T09:42:16;8.20;;;1.90;;
80625;SDS011;69982;51.758;5.784;2024-01-16T09:44:57;10.20;;;3.00;;
80625;SDS011;69982;51.758;5.784;2024-01-16T09:47:29;5.20;;;2.00;;
80625;SDS011;69982;51.758;5.784;2024-01-16T09:49:59;8.60;;;2.50;;
80625;SDS011;69982;51.758;5.784;2024-01-16T09:52:29;9.60;;;2.60;;
80625;SDS011;69982;51.758;5.784;2024-01-16T09:54:59;10.10;;;2.80;;
80625;SDS011;69982;51.758;5.784;2024-01-16T09:57:27;8.00;;;2.50;;
80625;SDS011;69982;51.758;5.784;2024-01-16T09:59:55;11.70;;;2.60;;
80625;SDS011;69982;51.758;5.784;2024-01-16T10:02:23;11.10;;;3.00;;
80625;SDS011;69982;51.758;5.784;2024-01-16T10:04:55;11.60;;;2.50;;
80625;SDS011;69982;51.758;5.784;2024-01-16T10:07:22;10.70;;;2.50;;
80625;SDS011;69982;51.758;5.784;2024-01-16T10:09:56;6.70;;;2.70;;
80625;SDS011;69982;51.758;5.784;2024-01-16T10:12:25;9.30;;;2.60;;
80625;SDS011;69982;51.758;5.784;2024-01-16T10:14:53;6.90;;;2.50;;
80625;SDS011;69982;51.758;5.784;2024-01-16T10:17:20;5.80;;;2.30;;
80625;SDS011;69982;51.758;5.784;2024-01-16T10:20:03;4.80;;;1.60;;
80625;SDS011;69982;51.758;5.784;2024-01-16T10:22:33;11.10;;;3.30;;
80625;SDS011;69982;51.758;5.784;2024-01-16T10:25:05;7.50;;;2.90;;
80625;SDS011;69982;51.758;5.784;2024-01-16T10:27:36;10.60;;;3.20;;
80625;SDS011;69982;51.758;5.784;2024-01-16T10:30:07;8.50;;;2.30;;
80625;SDS011;69982;51.758;5.784;2024-01-16T10:32:37;8.50;;;2.50;;
80625;SDS011;69982;51.758;5.784;2024-01-16T10:35:11;9.20;;;2.40;;
80625;SDS011;69982;51.758;5.784;2024-01-16T10:37:48;7.80;;;2.70;;
80625;SDS011;69982;51.758;5.784;2024-01-16T10:40:18;9.90;;;2.60;;
80625;SDS011;69982;51.758;5.784;2024-01-16T10:42:56;9.40;;;3.00;;
80625;SDS011;69982;51.758;5.784;2024-01-16T10:45:32;4.30;;;1.90;;
80625;SDS011;69982;51.758;5.784;2024-01-16T10:48:03;8.10;;;2.40;;
80625;SDS011;69982;51.758;5.784;2024-01-16T10:50:34;4.10;;;1.50;;
80625;SDS011;69982;51.758;5.784;2024-01-16T10:53:03;5.90;;;2.00;;
80625;SDS011;69982;51.758;5.784;2024-01-16T10:55:37;7.30;;;2.70;;
80625;SDS011;69982;51.758;5.784;2024-01-16T10:58:15;8.10;;;2.40;;
80625;SDS011;69982;51.758;5.784;2024-01-16T11:00:47;5.70;;;2.00;;
80625;SDS011;69982;51.758;5.784;2024-01-16T11:03:29;8.80;;;2.30;;
80625;SDS011;69982;51.758;5.784;2024-01-16T11:06:00;5.80;;;1.80;;
80625;SDS011;69982;51.758;5.784;2024-01-16T11:08:29;9.50;;;1.90;;
80625;SDS011;69982;51.758;5.784;2024-01-16T11:11:01;4.90;;;1.60;;
80625;SDS011;69982;51.758;5.784;2024-01-16T11:13:35;5.50;;;2.40;;
80625;SDS011;69982;51.758;5.784;2024-01-16T11:16:03;8.80;;;2.50;;
80625;SDS011;69982;51.758;5.784;2024-01-16T11:18:31;6.00;;;2.00;;
80625;SDS011;69982;51.758;5.784;2024-01-16T11:20:58;6.70;;;2.40;;
80625;SDS011;69982;51.758;5.784;2024-01-16T11:23:29;10.50;;;2.70;;
80625;SDS011;69982;51.758;5.784;2024-01-16T11:25:56;7.20;;;2.80;;
80625;SDS011;69982;51.758;5.784;2024-01-16T11:28:28;6.70;;;2.40;;
80625;SDS011;69982;51.758;5.784;2024-01-16T11:30:58;7.10;;;2.70;;
80625;SDS011;69982;51.758;5.784;2024-01-16T11:34:02;7.70;;;2.40;;
80625;SDS011;69982;51.758;5.784;2024-01-16T11:39:21;7.90;;;2.70;;
80625;SDS011;69982;51.758;5.784;2024-01-16T11:44:36;7.80;;;3.40;;
80625;SDS011;69982;51.758;5.784;2024-01-16T11:47:17;9.10;;;2.60;;
80625;SDS011;69982;51.758;5.784;2024-01-16T11:49:51;6.70;;;2.80;;
80625;SDS011;69982;51.758;5.784;2024-01-16T11:52:43;7.80;;;2.10;;
80625;SDS011;69982;51.758;5.784;2024-01-16T12:01:01;7.00;;;2.30;;
80625;SDS011;69982;51.758;5.784;2024-01-16T12:03:29;7.10;;;2.50;;
80625;SDS011;69982;51.758;5.784;2024-01-16T12:05:57;8.60;;;2.10;;
80625;SDS011;69982;51.758;5.784;2024-01-16T12:08:26;5.90;;;2.20;;
80625;SDS011;69982;51.758;5.784;2024-01-16T12:10:54;13.50;;;2.50;;
80625;SDS011;69982;51.758;5.784;2024-01-16T12:13:21;13.70;;;3.10;;
80625;SDS011;69982;51.758;5.784;2024-01-16T12:15:47;9.50;;;2.70;;
80625;SDS011;69982;51.758;5.784;2024-01-16T12:18:19;8.60;;;3.10;;
80625;SDS011;69982;51.758;5.784;2024-01-16T12:20:48;9.00;;;2.90;;
80625;SDS011;69982;51.758;5.784;2024-01-16T12:23:18;11.00;;;3.70;;
80625;SDS011;69982;51.758;5.784;2024-01-16T12:25:46;6.10;;;3.00;;
80625;SDS011;69982;51.758;5.784;2024-01-16T12:28:16;8.30;;;3.00;;
80625;SDS011;69982;51.758;5.784;2024-01-16T12:30:50;12.00;;;4.80;;
80625;SDS011;69982;51.758;5.784;2024-01-16T12:33:23;9.20;;;2.50;;
80625;SDS011;69982;51.758;5.784;2024-01-16T12:35:50;7.80;;;2.80;;
80625;SDS011;69982;51.758;5.784;2024-01-16T12:38:31;9.60;;;2.90;;
80625;SDS011;69982;51.758;5.784;2024-01-16T12:40:59;8.90;;;3.00;;
80625;SDS011;69982;51.758;5.784;2024-01-16T12:43:32;9.20;;;2.90;;
80625;SDS011;69982;51.758;5.784;2024-01-16T12:45:59;9.40;;;3.00;;
80625;SDS011;69982;51.758;5.784;2024-01-16T12:48:29;18.10;;;3.80;;
80625;SDS011;69982;51.758;5.784;2024-01-16T12:50:59;9.30;;;2.40;;
80625;SDS011;69982;51.758;5.784;2024-01-16T12:53:41;6.50;;;2.50;;
80625;SDS011;69982;51.758;5.784;2024-01-16T12:56:09;7.30;;;2.60;;
80625;SDS011;69982;51.758;5.784;2024-01-16T12:58:42;8.50;;;2.60;;
80625;SDS011;69982;51.758;5.784;2024-01-16T13:01:27;4.30;;;1.60;;
80625;SDS011;69982;51.758;5.784;2024-01-16T13:03:57;10.10;;;2.90;;
80625;SDS011;69982;51.758;5.784;2024-01-16T13:06:26;8.50;;;2.20;;
80625;SDS011;69982;51.758;5.784;2024-01-16T13:09:04;9.20;;;2.70;;
80625;SDS011;69982;51.758;5.784;2024-01-16T13:11:50;8.40;;;2.40;;
80625;SDS011;69982;51.758;5.784;2024-01-16T13:14:19;6.60;;;2.50;;
80625;SDS011;69982;51.758;5.784;2024-01-16T13:16:50;9.60;;;2.80;;
80625;SDS011;69982;51.758;5.784;2024-01-16T13:19:20;10.70;;;1.70;;
80625;SDS011;69982;51.758;5.784;2024-01-16T13:21:50;6.70;;;2.20;;
80625;SDS011;69982;51.758;5.784;2024-01-16T13:24:17;7.00;;;2.70;;
80625;SDS011;69982;51.758;5.784;2024-01-16T13:26:47;8.80;;;2.40;;
80625;SDS011;69982;51.758;5.784;2024-01-16T13:29:14;6.30;;;2.50;;
80625;SDS011;69982;51.758;5.784;2024-01-16T13:31:43;10.20;;;2.70;;
80625;SDS011;69982;51.758;5.784;2024-01-16T13:34:09;7.60;;;2.60;;
80625;SDS011;69982;51.758;5.784;2024-01-16T13:36:36;7.60;;;2.70;;
80625;SDS011;69982;51.758;5.784;2024-01-16T13:39:19;5.80;;;2.40;;
80625;SDS011;69982;51.758;5.784;2024-01-16T13:41:46;9.50;;;2.70;;
80625;SDS011;69982;51.758;5.784;2024-01-16T13:44:15;6.20;;;2.60;;
80625;SDS011;69982;51.758;5.784;2024-01-16T13:46:41;11.20;;;2.50;;
80625;SDS011;69982;51.758;5.784;2024-01-16T13:49:14;7.20;;;2.60;;
80625;SDS011;69982;51.758;5.784;2024-01-16T13:51:44;6.40;;;2.30;;
80625;SDS011;69982;51.758;5.784;2024-01-16T13:54:18;8.50;;;2.80;;
80625;SDS011;69982;51.758;5.784;2024-01-16T13:56:44;10.00;;;2.80;;
80625;SDS011;69982;51.758;5.784;2024-01-16T13:59:17;8.20;;;2.50;;
80625;SDS011;69982;51.758;5.784;2024-01-16T14:01:45;7.50;;;2.80;;
80625;SDS011;69982;51.758;5.784;2024-01-16T14:04:32;9.40;;;2.50;;
80625;SDS011;69982;51.758;5.784;2024-01-16T14:07:05;6.90;;;2.40;;
80625;SDS011;69982;51.758;5.784;2024-01-16T14:09:35;6.70;;;2.30;;
80625;SDS011;69982;51.758;5.784;2024-01-16T14:12:04;6.90;;;2.80;;
80625;SDS011;69982;51.758;5.784;2024-01-16T14:14:34;9.60;;;2.50;;
80625;SDS011;69982;51.758;5.784;2024-01-16T14:17:03;8.90;;;2.40;;
80625;SDS011;69982;51.758;5.784;2024-01-16T14:19:31;7.00;;;2.10;;
80625;SDS011;69982;51.758;5.784;2024-01-16T14:21:58;9.40;;;2.10;;
80625;SDS011;69982;51.758;5.784;2024-01-16T14:24:30;7.80;;;1.90;;
80625;SDS011;69982;51.758;5.784;2024-01-16T14:27:01;6.80;;;2.20;;
80625;SDS011;69982;51.758;5.784;2024-01-16T14:29:28;8.60;;;2.10;;
80625;SDS011;69982;51.758;5.784;2024-01-16T14:31:57;4.40;;;1.10;;
80625;SDS011;69982;51.758;5.784;2024-01-16T14:34:32;5.60;;;1.90;;
80625;SDS011;69982;51.758;5.784;2024-01-16T14:37:01;7.80;;;2.20;;
80625;SDS011;69982;51.758;5.784;2024-01-16T14:39:28;7.60;;;2.10;;
80625;SDS011;69982;51.758;5.784;2024-01-16T14:41:58;5.40;;;1.90;;
80625;SDS011;69982;51.758;5.784;2024-01-16T14:44:27;7.40;;;2.60;;
80625;SDS011;69982;51.758;5.784;2024-01-16T14:46:53;6.90;;;2.00;;
80625;SDS011;69982;51.758;5.784;2024-01-16T14:49:20;7.30;;;1.90;;
80625;SDS011;69982;51.758;5.784;2024-01-16T14:52:00;7.50;;;2.50;;
80625;SDS011;69982;51.758;5.784;2024-01-16T14:54:29;7.80;;;2.40;;
80625;SDS011;69982;51.758;5.784;2024-01-16T14:56:56;6.70;;;2.50;;
80625;SDS011;69982;51.758;5.784;2024-01-16T14:59:26;6.70;;;2.50;;
80625;SDS011;69982;51.758;5.784;2024-01-16T15:01:54;6.50;;;2.30;;
80625;SDS011;69982;51.758;5.784;2024-01-16T15:04:21;5.60;;;2.20;;
80625;SDS011;69982;51.758;5.784;2024-01-16T15:06:50;6.00;;;2.40;;
80625;SDS011;69982;51.758;5.784;2024-01-16T15:09:19;7.60;;;2.50;;
80625;SDS011;69982;51.758;5.784;2024-01-16T15:11:46;6.90;;;2.30;;
80625;SDS011;69982;51.758;5.784;2024-01-16T15:14:19;8.30;;;2.70;;
80625;SDS011;69982;51.758;5.784;2024-01-16T15:16:45;11.60;;;3.30;;
80625;SDS011;69982;51.758;5.784;2024-01-16T15:19:21;7.80;;;2.80;;
80625;SDS011;69982;51.758;5.784;2024-01-16T15:21:49;6.10;;;2.60;;
80625;SDS011;69982;51.758;5.784;2024-01-16T15:24:17;8.70;;;2.40;;
80625;SDS011;69982;51.758;5.784;2024-01-16T15:26:52;9.40;;;3.20;;
80625;SDS011;69982;51.758;5.784;2024-01-16T15:29:19;7.90;;;2.90;;
80625;SDS011;69982;51.758;5.784;2024-01-16T15:31:46;8.50;;;2.90;;
80625;SDS011;69982;51.758;5.784;2024-01-16T15:34:15;8.30;;;3.10;;
80625;SDS011;69982;51.758;5.784;2024-01-16T15:36:42;9.50;;;3.50;;
80625;SDS011;69982;51.758;5.784;2024-01-16T15:39:16;9.40;;;2.90;;
80625;SDS011;69982;51.758;5.784;2024-01-16T15:41:43;6.50;;;3.20;;
80625;SDS011;69982;51.758;5.784;2024-01-16T15:44:10;7.50;;;3.00;;
80625;SDS011;69982;51.758;5.784;2024-01-16T15:49:27;8.30;;;3.50;;
80625;SDS011;69982;51.758;5.784;2024-01-16T15:51:55;9.70;;;3.20;;
80625;SDS011;69982;51.758;5.784;2024-01-16T15:54:23;11.80;;;3.70;;
80625;SDS011;69982;51.758;5.784;2024-01-16T15:56:49;7.40;;;3.50;;
80625;SDS011;69982;51.758;5.784;2024-01-16T15:59:18;9.20;;;3.10;;
80625;SDS011;69982;51.758;5.784;2024-01-16T16:01:45;10.00;;;3.40;;
80625;SDS011;69982;51.758;5.784;2024-01-16T16:04:11;13.70;;;4.50;;
80625;SDS011;69982;51.758;5.784;2024-01-16T16:06:41;9.20;;;3.50;;
80625;SDS011;69982;51.758;5.784;2024-01-16T16:09:07;9.90;;;3.50;;
80625;SDS011;69982;51.758;5.784;2024-01-16T16:11:41;10.10;;;3.10;;
80625;SDS011;69982;51.758;5.784;2024-01-16T16:14:11;8.80;;;3.70;;
80625;SDS011;69982;51.758;5.784;2024-01-16T16:16:43;8.90;;;3.50;;
80625;SDS011;69982;51.758;5.784;2024-01-16T16:19:11;9.80;;;3.80;;
80625;SDS011;69982;51.758;5.784;2024-01-16T16:21:41;7.50;;;3.20;;
80625;SDS011;69982;51.758;5.784;2024-01-16T16:24:08;12.60;;;4.30;;
80625;SDS011;69982;51.758;5.784;2024-01-16T16:26:38;9.40;;;3.50;;
80625;SDS011;69982;51.758;5.784;2024-01-16T16:29:11;8.40;;;2.90;;
80625;SDS011;69982;51.758;5.784;2024-01-16T16:31:50;7.70;;;3.00;;
80625;SDS011;69982;51.758;5.784;2024-01-16T16:34:16;11.40;;;3.60;;
80625;SDS011;69982;51.758;5.784;2024-01-16T16:36:45;9.10;;;3.50;;